sensor_id;sensor_type;location;lat;lon;timestamp;pressure;altitude;pressure_sealevel;temperature;humidity
29569;BME280;16501;51.462;14.346;2022-12-29T00:00:03;99523.66;;;6.60;89.34
29569;BME280;16501;51.462;14.346;2022-12-29T00:02:29;99507.72;;;6.51;89.52
29569;BME280;16501;51.462;14.346;2022-12-29T00:04:54;99540.53;;;6.66;89.79
29569;BME280;16501;51.462;14.346;2022-12-29T00:07:21;99507.09;;;6.56;89.31
29569;BME280;16501;51.462;14.346;2022-12-29T00:09:46;99530.47;;;6.59;89.32
29569;BME280;16501;51.462;14.346;2022-12-29T00:12:11;99525.06;;;6.65;89.02
29569;BME280;16501;51.462;14.346;2022-12-29T00:14:37;99558.81;;;6.76;89.45
29569;BME280;16501;51.462;14.346;2022-12-29T00:17:21;99532.94;;;6.66;89.28
29569;BME280;16501;51.462;14.346;2022-12-29T00:19:47;99553.84;;;6.80;88.83
29569;BME280;16501;51.462;14.346;2022-12-29T00:22:30;99521.03;;;6.66;88.63
29569;BME280;16501;51.462;14.346;2022-12-29T00:25:14;99523.84;;;6.66;89.11
29569;BME280;16501;51.462;14.346;2022-12-29T00:27:58;99532.94;;;6.66;89.44
29569;BME280;16501;51.462;14.346;2022-12-29T00:30:42;99535.88;;;6.72;89.16
29569;BME280;16501;51.462;14.346;2022-12-29T00:33:30;99543.63;;;6.77;89.05
29569;BME280;16501;51.462;14.346;2022-12-29T00:38:55;99526.44;;;6.60;89.25
29569;BME280;16501;51.462;14.346;2022-12-29T00:41:40;99538.53;;;6.57;89.16
29569;BME280;16501;51.462;14.346;2022-12-29T00:44:24;99521.03;;;6.47;90.01
29569;BME280;16501;51.462;14.346;2022-12-29T00:46:49;99556.19;;;6.72;90.12
29569;BME280;16501;51.462;14.346;2022-12-29T00:49:16;99529.09;;;6.64;90.97
29569;BME280;16501;51.462;14.346;2022-12-29T00:52:15;99525.53;;;6.54;92.12
29569;BME280;16501;51.462;14.346;2022-12-29T00:54:41;99503.56;;;6.47;92.42
29569;BME280;16501;51.462;14.346;2022-12-29T00:57:08;99519.47;;;6.65;92.78
29569;BME280;16501;51.462;14.346;2022-12-29T00:59:40;99515.44;;;6.47;93.92
29569;BME280;16501;51.462;14.346;2022-12-29T01:02:07;99516.69;;;6.55;94.86
29569;BME280;16501;51.462;14.346;2022-12-29T01:04:32;99511.13;;;6.55;96.41
29569;BME280;16501;51.462;14.346;2022-12-29T01:06:58;99502.78;;;6.46;96.80
29569;BME280;16501;51.462;14.346;2022-12-29T01:09:23;99493.31;;;6.53;98.62
29569;BME280;16501;51.462;14.346;2022-12-29T01:12:09;99489.78;;;6.52;99.00
29569;BME280;16501;51.462;14.346;2022-12-29T01:14:35;99476.94;;;6.36;99.46
29569;BME280;16501;51.462;14.346;2022-12-29T01:17:00;99483.75;;;6.45;100.00
29569;BME280;16501;51.462;14.346;2022-12-29T01:19:26;99487.75;;;6.44;100.00
29569;BME280;16501;51.462;14.346;2022-12-29T01:21:52;99477.69;;;6.37;100.00
29569;BME280;16501;51.462;14.346;2022-12-29T01:24:19;99501.22;;;6.45;100.00
29569;BME280;16501;51.462;14.346;2022-12-29T01:26:45;99484.50;;;6.45;100.00
29569;BME280;16501;51.462;14.346;2022-12-29T01:29:11;99455.44;;;6.28;100.00
29569;BME280;16501;51.462;14.346;2022-12-29T01:31:36;99484.97;;;6.34;100.00
29569;BME280;16501;51.462;14.346;2022-12-29T01:34:01;99469.50;;;6.24;100.00
29569;BME280;16501;51.462;14.346;2022-12-29T01:36:29;99479.88;;;6.23;100.00
29569;BME280;16501;51.462;14.346;2022-12-29T01:38:55;99472.75;;;6.22;100.00
29569;BME280;16501;51.462;14.346;2022-12-29T01:41:21;99464.25;;;6.17;100.00
29569;BME280;16501;51.462;14.346;2022-12-29T01:43:52;99449.53;;;6.16;100.00
29569;BME280;16501;51.462;14.346;2022-12-29T01:51:55;99472.13;;;6.28;100.00
29569;BME280;16501;51.462;14.346;2022-12-29T01:54:26;99435.31;;;6.14;100.00
29569;BME280;16501;51.462;14.346;2022-12-29T01:56:55;99449.84;;;6.18;100.00
29569;BME280;16501;51.462;14.346;2022-12-29T01:59:25;99449.06;;;6.18;100.00
29569;BME280;16501;51.462;14.346;2022-12-29T02:01:53;99441.03;;;6.11;100.00
29569;BME280;16501;51.462;14.346;2022-12-29T02:04:19;99447.53;;;6.17;100.00
29569;BME280;16501;51.462;14.346;2022-12-29T02:06:51;99458.38;;;6.24;100.00
29569;BME280;16501;51.462;14.346;2022-12-29T02:09:18;99454.78;;;6.14;100.00
29569;BME280;16501;51.462;14.346;2022-12-29T02:11:44;99434.69;;;6.01;100.00
29569;BME280;16501;51.462;14.346;2022-12-29T02:14:11;99455.72;;;6.20;100.00
29569;BME280;16501;51.462;14.346;2022-12-29T02:28:46;99457.59;;;6.23;100.00
29569;BME280;16501;51.462;14.346;2022-12-29T02:36:40;99384.84;;;5.94;100.00
29569;BME280;16501;51.462;14.346;2022-12-29T02:47:48;99427.28;;;6.26;100.00
29569;BME280;16501;51.462;14.346;2022-12-29T02:50:43;99413.34;;;6.16;100.00
29569;BME280;16501;51.462;14.346;2022-12-29T02:53:15;99424.97;;;6.24;100.00
29569;BME280;16501;51.462;14.346;2022-12-29T02:55:49;99427.44;;;6.31;100.00
29569;BME280;16501;51.462;14.346;2022-12-29T02:58:22;99422.16;;;6.33;100.00
29569;BME280;16501;51.462;14.346;2022-12-29T03:06:03;99430.81;;;6.35;100.00
29569;BME280;16501;51.462;14.346;2022-12-29T03:08:48;99415.66;;;6.18;100.00
29569;BME280;16501;51.462;14.346;2022-12-29T03:11:15;99379.03;;;6.01;100.00
29569;BME280;16501;51.462;14.346;2022-12-29T03:14:08;99416.31;;;6.22;100.00
29569;BME280;16501;51.462;14.346;2022-12-29T03:17:01;99415.34;;;6.25;100.00
29569;BME280;16501;51.462;14.346;2022-12-29T03:19:33;99435.00;;;6.40;100.00
29569;BME280;16501;51.462;14.346;2022-12-29T03:22:04;99421.38;;;6.42;100.00
29569;BME280;16501;51.462;14.346;2022-12-29T03:24:54;99431.47;;;6.39;100.00
29569;BME280;16501;51.462;14.346;2022-12-29T03:27:29;99433.94;;;6.47;100.00
29569;BME280;16501;51.462;14.346;2022-12-29T03:29:59;99431.31;;;6.43;100.00
29569;BME280;16501;51.462;14.346;2022-12-29T03:32:31;99415.66;;;6.36;100.00
29569;BME280;16501;51.462;14.346;2022-12-29T03:34:58;99422.78;;;6.37;100.00
29569;BME280;16501;51.462;14.346;2022-12-29T03:37:29;99431.59;;;6.54;100.00
29569;BME280;16501;51.462;14.346;2022-12-29T03:40:32;99395.41;;;6.36;100.00
29569;BME280;16501;51.462;14.346;2022-12-29T03:42:59;99393.25;;;6.40;100.00
29569;BME280;16501;51.462;14.346;2022-12-29T03:45:25;99440.09;;;6.60;100.00
29569;BME280;16501;51.462;14.346;2022-12-29T03:47:51;99387.66;;;6.49;100.00
29569;BME280;16501;51.462;14.346;2022-12-29T03:50:18;99385.34;;;6.57;100.00
29569;BME280;16501;51.462;14.346;2022-12-29T03:52:44;99400.00;;;6.67;100.00
29569;BME280;16501;51.462;14.346;2022-12-29T03:55:11;99376.97;;;6.57;100.00
29569;BME280;16501;51.462;14.346;2022-12-29T03:57:36;99380.69;;;6.54;100.00
29569;BME280;16501;51.462;14.346;2022-12-29T04:00:04;99382.84;;;6.59;100.00
29569;BME280;16501;51.462;14.346;2022-12-29T04:02:30;99374.97;;;6.57;100.00
29569;BME280;16501;51.462;14.346;2022-12-29T04:04:55;99371.88;;;6.55;100.00
29569;BME280;16501;51.462;14.346;2022-12-29T04:07:21;99369.56;;;6.54;100.00
29569;BME280;16501;51.462;14.346;2022-12-29T04:09:46;99378.22;;;6.56;100.00
29569;BME280;16501;51.462;14.346;2022-12-29T04:12:13;99334.63;;;6.34;100.00
29569;BME280;16501;51.462;14.346;2022-12-29T04:14:39;99378.97;;;6.66;100.00
29569;BME280;16501;51.462;14.346;2022-12-29T04:17:04;99352.38;;;6.55;100.00
29569;BME280;16501;51.462;14.346;2022-12-29T04:19:30;99365.03;;;6.66;100.00
29569;BME280;16501;51.462;14.346;2022-12-29T04:21:55;99345.13;;;6.49;100.00
29569;BME280;16501;51.462;14.346;2022-12-29T04:24:20;99373.25;;;6.69;100.00
29569;BME280;16501;51.462;14.346;2022-12-29T04:26:46;99339.22;;;6.56;100.00
29569;BME280;16501;51.462;14.346;2022-12-29T04:29:11;99344.03;;;6.55;100.00
29569;BME280;16501;51.462;14.346;2022-12-29T04:31:36;99339.97;;;6.56;100.00
29569;BME280;16501;51.462;14.346;2022-12-29T04:34:02;99359.81;;;6.58;100.00
29569;BME280;16501;51.462;14.346;2022-12-29T04:36:27;99365.97;;;6.63;100.00
29569;BME280;16501;51.462;14.346;2022-12-29T04:38:52;99345.56;;;6.47;100.00
29569;BME280;16501;51.462;14.346;2022-12-29T04:41:18;99363.63;;;6.79;100.00
29569;BME280;16501;51.462;14.346;2022-12-29T04:43:43;99372.44;;;6.78;100.00
29569;BME280;16501;51.462;14.346;2022-12-29T04:46:09;99357.59;;;6.81;99.71
29569;BME280;16501;51.462;14.346;2022-12-29T04:48:35;99327.75;;;6.63;99.51
29569;BME280;16501;51.462;14.346;2022-12-29T04:51:00;99347.06;;;6.76;98.77
29569;BME280;16501;51.462;14.346;2022-12-29T04:53:26;99359.44;;;6.75;97.96
29569;BME280;16501;51.462;14.346;2022-12-29T04:55:52;99351.69;;;6.79;97.75
29569;BME280;16501;51.462;14.346;2022-12-29T04:58:21;99359.88;;;6.92;97.37
29569;BME280;16501;51.462;14.346;2022-12-29T05:00:46;99337.44;;;6.77;97.37
29569;BME280;16501;51.462;14.346;2022-12-29T05:03:11;99344.88;;;6.80;97.41
29569;BME280;16501;51.462;14.346;2022-12-29T05:05:37;99337.97;;;6.66;96.85
29569;BME280;16501;51.462;14.346;2022-12-29T05:08:02;99374.69;;;6.98;96.49
29569;BME280;16501;51.462;14.346;2022-12-29T05:10:28;99349.22;;;6.81;97.00
29569;BME280;16501;51.462;14.346;2022-12-29T05:12:54;99366.38;;;6.89;97.05
29569;BME280;16501;51.462;14.346;2022-12-29T05:15:19;99367.94;;;6.80;97.08
29569;BME280;16501;51.462;14.346;2022-12-29T05:17:45;99356.63;;;6.84;95.70
29569;BME280;16501;51.462;14.346;2022-12-29T05:20:10;99360.03;;;6.88;95.54
29569;BME280;16501;51.462;14.346;2022-12-29T05:22:35;99382.31;;;6.88;96.14
29569;BME280;16501;51.462;14.346;2022-12-29T05:25:01;99370.56;;;6.84;95.83
29569;BME280;16501;51.462;14.346;2022-12-29T05:27:26;99382.63;;;6.90;96.35
29569;BME280;16501;51.462;14.346;2022-12-29T05:29:51;99397.78;;;6.98;96.79
29569;BME280;16501;51.462;14.346;2022-12-29T05:32:18;99374.59;;;6.83;97.65
29569;BME280;16501;51.462;14.346;2022-12-29T05:34:44;99366.25;;;6.74;98.70
29569;BME280;16501;51.462;14.346;2022-12-29T05:37:09;99385.44;;;6.81;99.60
29569;BME280;16501;51.462;14.346;2022-12-29T05:39:34;99391.03;;;6.72;100.00
29569;BME280;16501;51.462;14.346;2022-12-29T05:41:59;99392.88;;;6.75;100.00
29569;BME280;16501;51.462;14.346;2022-12-29T05:44:25;99396.75;;;6.68;100.00
29569;BME280;16501;51.462;14.346;2022-12-29T05:46:51;99411.16;;;6.76;100.00
29569;BME280;16501;51.462;14.346;2022-12-29T05:49:17;99405.09;;;6.68;100.00
29569;BME280;16501;51.462;14.346;2022-12-29T05:51:43;99381.59;;;6.60;100.00
29569;BME280;16501;51.462;14.346;2022-12-29T05:54:08;99386.38;;;6.69;100.00
29569;BME280;16501;51.462;14.346;2022-12-29T05:56:35;99377.72;;;6.67;100.00
29569;BME280;16501;51.462;14.346;2022-12-29T05:59:00;99390.25;;;6.71;100.00
29569;BME280;16501;51.462;14.346;2022-12-29T06:01:25;99358.75;;;6.47;100.00
29569;BME280;16501;51.462;14.346;2022-12-29T06:03:51;99382.25;;;6.55;100.00
29569;BME280;16501;51.462;14.346;2022-12-29T06:06:16;99375.56;;;6.61;100.00
29569;BME280;16501;51.462;14.346;2022-12-29T06:08:41;99377.28;;;6.59;100.00
29569;BME280;16501;51.462;14.346;2022-12-29T06:11:07;99351.44;;;6.58;100.00
29569;BME280;16501;51.462;14.346;2022-12-29T06:13:32;99349.91;;;6.48;100.00
29569;BME280;16501;51.462;14.346;2022-12-29T06:15:57;99349.44;;;6.40;100.00
29569;BME280;16501;51.462;14.346;2022-12-29T06:18:22;99341.88;;;6.50;100.00
29569;BME280;16501;51.462;14.346;2022-12-29T06:20:48;99349.91;;;6.57;100.00
29569;BME280;16501;51.462;14.346;2022-12-29T06:23:13;99345.56;;;6.47;100.00
29569;BME280;16501;51.462;14.346;2022-12-29T06:25:39;99351.75;;;6.51;100.00
29569;BME280;16501;51.462;14.346;2022-12-29T06:28:04;99359.47;;;6.56;100.00
29569;BME280;16501;51.462;14.346;2022-12-29T06:30:30;99365.38;;;6.49;100.00
29569;BME280;16501;51.462;14.346;2022-12-29T06:32:55;99356.41;;;6.45;100.00
29569;BME280;16501;51.462;14.346;2022-12-29T06:35:21;99332.31;;;6.33;100.00
29569;BME280;16501;51.462;14.346;2022-12-29T06:37:48;99361.03;;;6.57;100.00
29569;BME280;16501;51.462;14.346;2022-12-29T06:40:13;99347.28;;;6.54;100.00
29569;BME280;16501;51.462;14.346;2022-12-29T06:42:38;99311.56;;;6.34;100.00
29569;BME280;16501;51.462;14.346;2022-12-29T06:45:04;99333.03;;;6.42;100.00
29569;BME280;16501;51.462;14.346;2022-12-29T06:47:29;99332.75;;;6.50;100.00
29569;BME280;16501;51.462;14.346;2022-12-29T06:49:55;99304.75;;;6.35;100.00
29569;BME280;16501;51.462;14.346;2022-12-29T06:52:20;99338.44;;;6.55;100.00
29569;BME280;16501;51.462;14.346;2022-12-29T06:54:45;99341.84;;;6.59;100.00
29569;BME280;16501;51.462;14.346;2022-12-29T06:57:12;99354.84;;;6.63;100.00
29569;BME280;16501;51.462;14.346;2022-12-29T06:59:37;99349.44;;;6.59;100.00
29569;BME280;16501;51.462;14.346;2022-12-29T07:02:02;99348.34;;;6.56;100.00
29569;BME280;16501;51.462;14.346;2022-12-29T07:04:28;99355.72;;;6.69;100.00
29569;BME280;16501;51.462;14.346;2022-12-29T07:06:54;99365.03;;;6.66;100.00
29569;BME280;16501;51.462;14.346;2022-12-29T07:09:19;99347.88;;;6.58;100.00
29569;BME280;16501;51.462;14.346;2022-12-29T07:11:44;99356.69;;;6.56;100.00
29569;BME280;16501;51.462;14.346;2022-12-29T07:14:11;99309.72;;;6.31;100.00
29569;BME280;16501;51.462;14.346;2022-12-29T07:16:36;99356.09;;;6.52;100.00
29569;BME280;16501;51.462;14.346;2022-12-29T07:19:02;99358.41;;;6.54;100.00
29569;BME280;16501;51.462;14.346;2022-12-29T07:21:27;99370.63;;;6.66;100.00
29569;BME280;16501;51.462;14.346;2022-12-29T07:23:53;99354.06;;;6.53;100.00
29569;BME280;16501;51.462;14.346;2022-12-29T07:26:18;99350.06;;;6.54;100.00
29569;BME280;16501;51.462;14.346;2022-12-29T07:28:44;99356.69;;;6.56;100.00
29569;BME280;16501;51.462;14.346;2022-12-29T07:31:19;99321.47;;;6.35;100.00
29569;BME280;16501;51.462;14.346;2022-12-29T07:33:45;99354.69;;;6.57;100.00
29569;BME280;16501;51.462;14.346;2022-12-29T07:36:11;99345.72;;;6.53;100.00
29569;BME280;16501;51.462;14.346;2022-12-29T07:38:37;99338.63;;;6.52;100.00
29569;BME280;16501;51.462;14.346;2022-12-29T07:41:02;99337.81;;;6.51;100.00
29569;BME280;16501;51.462;14.346;2022-12-29T07:43:28;99349.44;;;6.59;100.00
29569;BME280;16501;51.462;14.346;2022-12-29T07:45:53;99355.28;;;6.61;100.00
29569;BME280;16501;51.462;14.346;2022-12-29T07:48:18;99319.28;;;6.39;100.00
29569;BME280;16501;51.462;14.346;2022-12-29T07:50:44;99365.22;;;6.62;100.00
29569;BME280;16501;51.462;14.346;2022-12-29T07:53:09;99369.38;;;6.67;100.00
29569;BME280;16501;51.462;14.346;2022-12-29T07:55:34;99344.63;;;6.59;100.00
29569;BME280;16501;51.462;14.346;2022-12-29T07:57:59;99362.72;;;6.64;100.00
29569;BME280;16501;51.462;14.346;2022-12-29T08:00:25;99388.06;;;6.75;100.00
29569;BME280;16501;51.462;14.346;2022-12-29T08:02:51;99367.81;;;6.75;100.00
29569;BME280;16501;51.462;14.346;2022-12-29T08:05:16;99356.97;;;6.77;99.83
29569;BME280;16501;51.462;14.346;2022-12-29T08:07:43;99354.63;;;6.85;99.62
29569;BME280;16501;51.462;14.346;2022-12-29T08:10:09;99367.41;;;7.01;99.43
29569;BME280;16501;51.462;14.346;2022-12-29T08:12:40;99367.06;;;7.08;99.01
29569;BME280;16501;51.462;14.346;2022-12-29T08:15:06;99325.25;;;6.74;99.30
29569;BME280;16501;51.462;14.346;2022-12-29T08:17:33;99351.63;;;6.97;99.49
29569;BME280;16501;51.462;14.346;2022-12-29T08:19:58;99349.75;;;7.04;99.55
29569;BME280;16501;51.462;14.346;2022-12-29T08:22:24;99355.94;;;7.08;99.54
29569;BME280;16501;51.462;14.346;2022-12-29T08:24:50;99379.69;;;7.27;99.52
29569;BME280;16501;51.462;14.346;2022-12-29T08:27:17;99348.16;;;7.12;99.02
29569;BME280;16501;51.462;14.346;2022-12-29T08:29:43;99352.16;;;7.20;99.51
29569;BME280;16501;51.462;14.346;2022-12-29T08:32:09;99355.41;;;7.18;98.18
29569;BME280;16501;51.462;14.346;2022-12-29T08:34:34;99376.72;;;7.31;98.73
29569;BME280;16501;51.462;14.346;2022-12-29T08:37:00;99353.09;;;7.17;98.13
29569;BME280;16501;51.462;14.346;2022-12-29T08:39:26;99375.31;;;7.35;97.98
29569;BME280;16501;51.462;14.346;2022-12-29T08:41:54;99376.56;;;7.34;97.57
29569;BME280;16501;51.462;14.346;2022-12-29T08:44:19;99370.09;;;7.28;97.37
29569;BME280;16501;51.462;14.346;2022-12-29T08:46:46;99380.72;;;7.39;97.83
29569;BME280;16501;51.462;14.346;2022-12-29T08:49:11;99371.03;;;7.25;97.43
29569;BME280;16501;51.462;14.346;2022-12-29T08:51:37;99385.25;;;7.27;97.41
29569;BME280;16501;51.462;14.346;2022-12-29T08:54:02;99391.28;;;7.35;97.55
29569;BME280;16501;51.462;14.346;2022-12-29T08:56:28;99373.94;;;7.31;96.91
29569;BME280;16501;51.462;14.346;2022-12-29T08:58:53;99367.78;;;7.27;97.19
29569;BME280;16501;51.462;14.346;2022-12-29T09:01:19;99362.97;;;7.27;96.73
29569;BME280;16501;51.462;14.346;2022-12-29T09:03:45;99381.66;;;7.36;96.82
29569;BME280;16501;51.462;14.346;2022-12-29T09:06:12;99375.66;;;7.28;96.93
29569;BME280;16501;51.462;14.346;2022-12-29T09:08:38;99389.44;;;7.32;96.67
29569;BME280;16501;51.462;14.346;2022-12-29T09:11:32;99402.56;;;7.41;96.74
29569;BME280;16501;51.462;14.346;2022-12-29T09:13:58;99383.69;;;7.35;96.88
29569;BME280;16501;51.462;14.346;2022-12-29T09:16:24;99358.47;;;7.30;96.66
29569;BME280;16501;51.462;14.346;2022-12-29T09:18:51;99373.75;;;7.34;96.71
29569;BME280;16501;51.462;14.346;2022-12-29T09:21:16;99376.81;;;7.46;96.80
29569;BME280;16501;51.462;14.346;2022-12-29T09:23:41;99376.81;;;7.46;96.03
29569;BME280;16501;51.462;14.346;2022-12-29T09:26:07;99381.75;;;7.51;95.88
29569;BME280;16501;51.462;14.346;2022-12-29T09:28:33;99358.53;;;7.45;95.52
29569;BME280;16501;51.462;14.346;2022-12-29T09:30:58;99377.25;;;7.78;94.17
29569;BME280;16501;51.462;14.346;2022-12-29T09:33:24;99365.06;;;7.90;92.48
29569;BME280;16501;51.462;14.346;2022-12-29T09:35:52;99391.44;;;8.28;91.33
29569;BME280;16501;51.462;14.346;2022-12-29T09:38:31;99386.78;;;8.49;90.15
29569;BME280;16501;51.462;14.346;2022-12-29T09:41:16;99360.97;;;8.54;88.67
29569;BME280;16501;51.462;14.346;2022-12-29T09:44:02;99357.59;;;8.65;88.76
29569;BME280;16501;51.462;14.346;2022-12-29T09:46:34;99374.75;;;8.87;87.40
29569;BME280;16501;51.462;14.346;2022-12-29T09:49:21;99391.72;;;8.99;87.66
29569;BME280;16501;51.462;14.346;2022-12-29T09:51:53;99389.81;;;8.90;86.48
29569;BME280;16501;51.462;14.346;2022-12-29T09:54:41;99376.88;;;8.78;87.13
29569;BME280;16501;51.462;14.346;2022-12-29T09:57:16;99367.44;;;8.90;87.33
29569;BME280;16501;51.462;14.346;2022-12-29T09:59:44;99335.63;;;8.73;86.41
29569;BME280;16501;51.462;14.346;2022-12-29T10:02:31;99381.09;;;8.88;86.96
29569;BME280;16501;51.462;14.346;2022-12-29T10:04:57;99360.00;;;8.72;87.36
29569;BME280;16501;51.462;14.346;2022-12-29T10:07:26;99372.63;;;8.82;87.23
29569;BME280;16501;51.462;14.346;2022-12-29T10:13:20;99371.22;;;9.37;85.49
29569;BME280;16501;51.462;14.346;2022-12-29T10:15:50;99373.56;;;9.80;81.96
29569;BME280;16501;51.462;14.346;2022-12-29T10:21:05;99356.31;;;10.28;78.56
29569;BME280;16501;51.462;14.346;2022-12-29T10:23:50;99347.06;;;10.22;76.86
29569;BME280;16501;51.462;14.346;2022-12-29T10:26:17;99363.38;;;10.44;76.43
29569;BME280;16501;51.462;14.346;2022-12-29T10:28:45;99376.00;;;10.60;76.30
29569;BME280;16501;51.462;14.346;2022-12-29T10:31:20;99354.41;;;10.66;76.48
29569;BME280;16501;51.462;14.346;2022-12-29T10:33:50;99350.41;;;10.73;75.80
29569;BME280;16501;51.462;14.346;2022-12-29T10:36:20;99360.59;;;10.76;75.33
29569;BME280;16501;51.462;14.346;2022-12-29T10:39:18;99369.53;;;11.06;74.98
29569;BME280;16501;51.462;14.346;2022-12-29T10:41:58;99345.50;;;11.00;74.30
29569;BME280;16501;51.462;14.346;2022-12-29T10:44:31;99386.81;;;11.31;74.30
29569;BME280;16501;51.462;14.346;2022-12-29T10:47:02;99348.34;;;11.05;73.89
29569;BME280;16501;51.462;14.346;2022-12-29T10:49:30;99372.00;;;11.30;74.38
29569;BME280;16501;51.462;14.346;2022-12-29T10:52:00;99370.22;;;11.33;74.00
29569;BME280;16501;51.462;14.346;2022-12-29T10:54:44;99371.84;;;11.45;73.20
29569;BME280;16501;51.462;14.346;2022-12-29T10:57:24;99319.84;;;11.12;72.93
29569;BME280;16501;51.462;14.346;2022-12-29T10:59:50;99350.16;;;11.46;74.55
29569;BME280;16501;51.462;14.346;2022-12-29T11:08:19;99293.94;;;11.29;71.45
29569;BME280;16501;51.462;14.346;2022-12-29T11:10:45;99342.50;;;11.46;73.22
29569;BME280;16501;51.462;14.346;2022-12-29T11:13:29;99329.53;;;11.11;73.03
29569;BME280;16501;51.462;14.346;2022-12-29T11:15:55;99327.38;;;10.95;74.85
29569;BME280;16501;51.462;14.346;2022-12-29T11:18:24;99349.63;;;11.04;74.87
29569;BME280;16501;51.462;14.346;2022-12-29T11:20:53;99359.34;;;11.09;74.51
29569;BME280;16501;51.462;14.346;2022-12-29T11:26:18;99356.13;;;10.90;74.10
29569;BME280;16501;51.462;14.346;2022-12-29T11:31:50;99347.03;;;10.43;75.76
29569;BME280;16501;51.462;14.346;2022-12-29T11:34:22;99312.91;;;10.18;75.81
29569;BME280;16501;51.462;14.346;2022-12-29T11:36:49;99290.25;;;9.95;75.55
29569;BME280;16501;51.462;14.346;2022-12-29T11:39:32;99294.69;;;9.81;76.29
29569;BME280;16501;51.462;14.346;2022-12-29T11:41:58;99337.00;;;10.10;76.93
29569;BME280;16501;51.462;14.346;2022-12-29T11:44:24;99324.28;;;9.88;77.48
29569;BME280;16501;51.462;14.346;2022-12-29T11:46:51;99280.69;;;9.61;77.75
29569;BME280;16501;51.462;14.346;2022-12-29T11:49:23;99297.16;;;9.74;78.17
29569;BME280;16501;51.462;14.346;2022-12-29T11:51:51;99310.13;;;9.77;77.98
29569;BME280;16501;51.462;14.346;2022-12-29T11:54:24;99329.72;;;9.77;78.55
29569;BME280;16501;51.462;14.346;2022-12-29T11:56:50;99292.16;;;9.63;78.16
29569;BME280;16501;51.462;14.346;2022-12-29T11:59:37;99328.06;;;9.85;78.69
29569;BME280;16501;51.462;14.346;2022-12-29T12:04:56;99328.13;;;9.91;78.86
29569;BME280;16501;51.462;14.346;2022-12-29T12:07:46;99295.66;;;9.78;78.62
29569;BME280;16501;51.462;14.346;2022-12-29T12:10:36;99307.47;;;9.88;78.21
29569;BME280;16501;51.462;14.346;2022-12-29T12:15:59;99316.00;;;9.99;77.69
29569;BME280;16501;51.462;14.346;2022-12-29T12:21:06;99305.19;;;9.87;78.86
29569;BME280;16501;51.462;14.346;2022-12-29T12:23:56;99303.53;;;10.00;77.88
29569;BME280;16501;51.462;14.346;2022-12-29T12:26:35;99298.38;;;9.93;77.17
29569;BME280;16501;51.462;14.346;2022-12-29T12:29:12;99302.56;;;10.04;77.54
29569;BME280;16501;51.462;14.346;2022-12-29T12:31:59;99306.91;;;10.05;77.66
29569;BME280;16501;51.462;14.346;2022-12-29T12:34:40;99284.38;;;9.93;78.03
29569;BME280;16501;51.462;14.346;2022-12-29T12:40:23;99303.38;;;10.10;78.35
29569;BME280;16501;51.462;14.346;2022-12-29T12:42:44;99279.53;;;9.94;77.55
29569;BME280;16501;51.462;14.346;2022-12-29T12:45:24;99290.16;;;10.10;78.49
29569;BME280;16501;51.462;14.346;2022-12-29T12:50:52;99279.81;;;10.22;77.56
29569;BME280;16501;51.462;14.346;2022-12-29T12:56:18;99268.53;;;10.11;78.23
29569;BME280;16501;51.462;14.346;2022-12-29T12:59:13;99284.44;;;10.25;78.18
29569;BME280;16501;51.462;14.346;2022-12-29T13:04:32;99253.69;;;10.05;78.24
29569;BME280;16501;51.462;14.346;2022-12-29T13:07:27;99257.31;;;10.11;78.68
29569;BME280;16501;51.462;14.346;2022-12-29T13:10:18;99275.28;;;10.25;78.81
29569;BME280;16501;51.462;14.346;2022-12-29T13:15:36;99257.50;;;10.02;79.68
29569;BME280;16501;51.462;14.346;2022-12-29T13:20:52;99287.41;;;10.16;79.15
29569;BME280;16501;51.462;14.346;2022-12-29T13:23:27;99287.19;;;10.19;79.91
29569;BME280;16501;51.462;14.346;2022-12-29T13:26:11;99282.09;;;10.18;80.14
29569;BME280;16501;51.462;14.346;2022-12-29T13:28:55;99286.66;;;10.15;80.47
29569;BME280;16501;51.462;14.346;2022-12-29T13:31:43;99277.72;;;10.17;79.42
29569;BME280;16501;51.462;14.346;2022-12-29T13:37:04;99276.88;;;10.05;80.06
29569;BME280;16501;51.462;14.346;2022-12-29T13:39:36;99290.94;;;10.11;80.55
29569;BME280;16501;51.462;14.346;2022-12-29T13:42:04;99282.97;;;10.04;80.76
29569;BME280;16501;51.462;14.346;2022-12-29T13:45:04;99286.25;;;10.02;81.10
29569;BME280;16501;51.462;14.346;2022-12-29T13:47:37;99304.88;;;10.05;81.18
29569;BME280;16501;51.462;14.346;2022-12-29T13:50:10;99246.19;;;9.70;81.50
29569;BME280;16501;51.462;14.346;2022-12-29T13:55:35;99309.25;;;10.12;81.64
29569;BME280;16501;51.462;14.346;2022-12-29T14:06:16;99320.69;;;10.08;82.86
29569;BME280;16501;51.462;14.346;2022-12-29T14:08:44;99287.63;;;9.86;83.00
29569;BME280;16501;51.462;14.346;2022-12-29T14:11:11;99328.31;;;10.08;83.26
29569;BME280;16501;51.462;14.346;2022-12-29T14:13:41;99321.31;;;9.97;83.61
29569;BME280;16501;51.462;14.346;2022-12-29T14:16:21;99314.63;;;9.89;83.62
29569;BME280;16501;51.462;14.346;2022-12-29T14:18:48;99316.44;;;9.92;83.84
29569;BME280;16501;51.462;14.346;2022-12-29T14:21:20;99319.72;;;9.91;84.28
29569;BME280;16501;51.462;14.346;2022-12-29T14:23:53;99312.81;;;9.86;84.14
29569;BME280;16501;51.462;14.346;2022-12-29T14:29:15;99323.38;;;9.97;84.05
29569;BME280;16501;51.462;14.346;2022-12-29T14:31:41;99317.97;;;9.93;83.99
29569;BME280;16501;51.462;14.346;2022-12-29T14:36:40;99329.94;;;10.14;83.16
29569;BME280;16501;51.462;14.346;2022-12-29T14:42:05;99330.47;;;10.18;83.35
29569;BME280;16501;51.462;14.346;2022-12-29T14:44:33;99331.19;;;10.13;81.92
29569;BME280;16501;51.462;14.346;2022-12-29T14:47:05;99314.66;;;10.15;81.42
29569;BME280;16501;51.462;14.346;2022-12-29T14:49:39;99322.56;;;10.17;81.07
29569;BME280;16501;51.462;14.346;2022-12-29T14:57:08;99353.84;;;10.36;81.52
29569;BME280;16501;51.462;14.346;2022-12-29T14:59:37;99320.06;;;10.19;81.06